createdAt,value
2024-03-28T00:00:16.897Z,97.4
2024-03-28T00:01:17.473Z,97.2
2024-03-28T00:02:17.001Z,97.3
2024-03-28T00:03:16.558Z,97.4
2024-03-28T00:04:17.146Z,97.4
2024-03-28T00:05:16.679Z,97.5
2024-03-28T00:06:17.214Z,97.3
2024-03-28T00:07:16.753Z,97.2
2024-03-28T00:08:17.293Z,97.2
2024-03-28T00:09:16.799Z,97.2
2024-03-28T00:10:17.336Z,97.3
2024-03-28T00:11:16.921Z,97.4
2024-03-28T00:12:17.523Z,97.6
2024-03-28T00:13:17.090Z,97.4
2024-03-28T00:14:16.736Z,96.9
2024-03-28T00:15:17.328Z,96.8
2024-03-28T00:16:16.923Z,96.9
2024-03-28T00:17:17.435Z,97.0
2024-03-28T00:18:16.942Z,97.3
2024-03-28T00:19:33.457Z,97.3
2024-03-28T00:20:16.709Z,97.2
2024-03-28T00:21:17.265Z,97.2
2024-03-28T00:22:16.823Z,97.3
2024-03-28T00:23:17.336Z,97.4
2024-03-28T00:24:16.895Z,97.3
2024-03-28T00:25:18.322Z,96.9
2024-03-28T00:26:16.900Z,96.9
2024-03-28T00:27:17.442Z,97.1
2024-03-28T00:28:17.043Z,97.1
2024-03-28T00:29:16.620Z,97.4
2024-03-28T00:30:17.258Z,97.6
2024-03-28T00:31:16.860Z,97.4
2024-03-28T00:32:17.472Z,97.4
2024-03-28T00:33:19.572Z,97.3
2024-03-28T00:34:17.206Z,97.2
2024-03-28T00:35:16.785Z,97.2
2024-03-28T00:36:17.379Z,97.3
2024-03-28T00:37:17.028Z,97.4
2024-03-28T00:38:16.757Z,97.6
2024-03-28T00:39:17.277Z,97.7
2024-03-28T00:40:16.974Z,97.8
2024-03-28T00:41:16.526Z,98.2
2024-03-28T00:42:17.052Z,98.3
2024-03-28T00:43:16.650Z,98.1
2024-03-28T00:44:17.263Z,97.9
2024-03-28T00:45:16.843Z,97.8
2024-03-28T00:46:17.515Z,97.9
2024-03-28T00:47:17.101Z,98.0
2024-03-28T00:48:16.656Z,98.1
2024-03-28T00:49:17.351Z,98.2
2024-03-28T00:50:16.918Z,97.9
2024-03-28T00:51:17.507Z,98.3
2024-03-28T00:52:17.141Z,98.4
2024-03-28T00:53:16.735Z,98.5
2024-03-28T00:54:17.273Z,98.6
2024-03-28T00:55:16.920Z,98.6
2024-03-28T00:56:17.516Z,98.6
2024-03-28T00:57:17.112Z,98.6
2024-03-28T00:58:16.750Z,98.8
2024-03-28T00:59:17.306Z,98.8
2024-03-28T01:00:16.824Z,98.7
2024-03-28T01:01:17.441Z,98.8
2024-03-28T01:02:17.007Z,98.8
2024-03-28T01:03:16.585Z,98.7
2024-03-28T01:04:17.141Z,98.6
2024-03-28T01:05:16.728Z,98.7
2024-03-28T01:06:17.278Z,98.8
2024-03-28T01:07:16.906Z,98.7
2024-03-28T01:08:17.432Z,98.9
2024-03-28T01:09:16.952Z,98.9
2024-03-28T01:10:17.566Z,99.0
2024-03-28T01:11:17.175Z,99.0
2024-03-28T01:12:16.739Z,98.9
2024-03-28T01:13:17.315Z,98.8
2024-03-28T01:14:16.868Z,98.8
2024-03-28T01:15:17.400Z,98.8
2024-03-28T01:16:16.996Z,98.9
2024-03-28T01:17:16.579Z,98.9
2024-03-28T01:18:17.120Z,98.9
2024-03-28T01:19:16.771Z,98.9
2024-03-28T01:20:17.377Z,99.0
2024-03-28T01:21:16.940Z,99.0
2024-03-28T01:22:17.508Z,99.1
2024-03-28T01:23:17.018Z,99.0
2024-03-28T01:24:16.545Z,98.7
2024-03-28T01:25:17.164Z,98.7
2024-03-28T01:26:16.798Z,98.8
2024-03-28T01:27:17.339Z,98.9
2024-03-28T01:28:16.931Z,99.0
2024-03-28T01:29:17.468Z,98.9
2024-03-28T01:30:16.999Z,98.8
2024-03-28T01:31:16.625Z,98.9
2024-03-28T01:32:17.239Z,99.0
2024-03-28T01:33:16.783Z,99.2
2024-03-28T01:34:17.376Z,99.1
2024-03-28T01:35:16.901Z,99.0
2024-03-28T01:36:17.450Z,99.0
2024-03-28T01:37:16.973Z,99.0
2024-03-28T01:38:16.608Z,99.0
2024-03-28T01:39:17.165Z,99.0
2024-03-28T01:40:16.691Z,99.0
2024-03-28T01:41:17.232Z,99.0
2024-03-28T01:42:16.769Z,98.9
2024-03-28T01:43:17.406Z,99.0
2024-03-28T01:44:16.945Z,99.1
2024-03-28T01:45:17.599Z,99.0
2024-03-28T01:46:31.040Z,98.8
2024-03-28T01:48:17.447Z,98.5
2024-03-28T01:49:17.039Z,98.5
2024-03-28T01:50:16.639Z,98.6
2024-03-28T01:51:17.145Z,98.7
2024-03-28T01:52:16.798Z,98.8
2024-03-28T01:53:17.358Z,98.8
2024-03-28T01:54:16.916Z,98.8
2024-03-28T01:55:17.747Z,98.7
2024-03-28T01:56:17.306Z,98.6
2024-03-28T01:57:16.847Z,98.6
2024-03-28T01:58:17.421Z,98.7
2024-03-28T01:59:16.968Z,98.7
2024-03-28T02:00:16.522Z,98.8
2024-03-28T02:01:17.138Z,98.6
2024-03-28T02:02:16.721Z,98.6
2024-03-28T02:03:17.232Z,98.6
2024-03-28T02:04:16.889Z,98.6
2024-03-28T02:05:17.478Z,98.6
2024-03-28T02:06:17.102Z,98.5
2024-03-28T02:07:16.643Z,98.6
2024-03-28T02:08:17.204Z,98.7
2024-03-28T02:09:16.774Z,98.8
2024-03-28T02:10:17.358Z,98.7
2024-03-28T02:11:16.904Z,98.6
2024-03-28T02:12:17.492Z,98.6
2024-03-28T02:13:17.071Z,98.6
2024-03-28T02:14:16.671Z,98.7
2024-03-28T02:15:17.281Z,98.7
2024-03-28T02:16:16.921Z,98.7
2024-03-28T02:17:17.463Z,98.7
2024-03-28T02:18:17.055Z,98.8
2024-03-28T02:19:16.631Z,98.9
2024-03-28T02:20:17.192Z,99.0
2024-03-28T02:21:16.746Z,98.9
2024-03-28T02:22:17.358Z,98.9
2024-03-28T02:23:16.992Z,99.0
2024-03-28T02:24:16.543Z,99.0
2024-03-28T02:25:17.087Z,99.1
2024-03-28T02:26:16.621Z,99.2
2024-03-28T02:27:17.191Z,99.2
2024-03-28T02:28:16.755Z,99.1
2024-03-28T02:29:17.309Z,99.0
2024-03-28T02:30:18.426Z,98.9
2024-03-28T02:31:17.028Z,99.0
2024-03-28T02:32:16.641Z,99.1
2024-03-28T02:33:17.149Z,99.1
2024-03-28T02:34:16.699Z,99.1
2024-03-28T02:35:17.217Z,99.2
2024-03-28T02:36:16.757Z,99.1
2024-03-28T02:37:17.366Z,98.9
2024-03-28T02:38:16.929Z,98.9
2024-03-28T02:39:17.492Z,98.9
2024-03-28T02:40:17.049Z,99.0
2024-03-28T02:41:16.665Z,98.9
2024-03-28T02:42:17.194Z,98.9
2024-03-28T02:43:16.763Z,98.9
2024-03-28T02:44:17.347Z,98.9
2024-03-28T02:45:16.895Z,98.9
2024-03-28T02:46:17.483Z,98.9
2024-03-28T02:47:17.008Z,98.9
2024-03-28T02:48:16.522Z,98.9
2024-03-28T02:49:17.133Z,99.0
2024-03-28T02:50:16.690Z,98.8
2024-03-28T02:51:17.247Z,98.9
2024-03-28T02:52:16.808Z,98.9
2024-03-28T02:53:17.379Z,99.0
2024-03-28T02:54:16.931Z,99.1
2024-03-28T02:55:17.513Z,99.1
2024-03-28T02:56:17.103Z,99.1
2024-03-28T02:57:16.626Z,99.1
2024-03-28T02:58:17.218Z,99.1
2024-03-28T02:59:16.759Z,99.2
2024-03-28T03:00:17.294Z,99.3
2024-03-28T03:01:16.847Z,99.4
2024-03-28T03:02:17.370Z,99.5
2024-03-28T03:03:16.915Z,99.5
2024-03-28T03:04:17.527Z,99.7
2024-03-28T03:05:17.073Z,99.8
2024-03-28T03:06:16.626Z,99.8
2024-03-28T03:07:17.227Z,99.7
2024-03-28T03:08:16.794Z,99.7
2024-03-28T03:09:17.378Z,99.6
2024-03-28T03:10:16.925Z,99.4
2024-03-28T03:11:17.439Z,99.3
2024-03-28T03:12:16.962Z,99.3
2024-03-28T03:13:17.530Z,99.3
2024-03-28T03:14:17.105Z,99.3
2024-03-28T03:15:16.688Z,99.3
2024-03-28T03:16:17.241Z,99.4
2024-03-28T03:17:16.877Z,99.5
2024-03-28T03:18:17.393Z,99.4
2024-03-28T03:19:16.918Z,99.5
2024-03-28T03:20:17.488Z,99.4
2024-03-28T03:21:17.044Z,99.3
2024-03-28T03:22:16.573Z,99.3
2024-03-28T03:23:17.105Z,99.4
2024-03-28T03:24:17.413Z,99.5
2024-03-28T03:25:16.981Z,99.5
2024-03-28T03:26:16.563Z,99.5
2024-03-28T03:27:17.127Z,99.6
2024-03-28T03:28:16.735Z,99.6
2024-03-28T03:29:17.288Z,99.7
2024-03-28T03:30:16.851Z,99.6
2024-03-28T03:31:17.385Z,99.7
2024-03-28T03:32:16.927Z,99.6
2024-03-28T03:33:17.475Z,99.5
2024-03-28T03:34:17.074Z,99.7
2024-03-28T03:35:16.603Z,99.8
2024-03-28T03:36:17.193Z,99.7
2024-03-28T03:37:16.804Z,99.8
2024-03-28T03:38:17.394Z,99.8
2024-03-28T03:39:17.022Z,99.9
2024-03-28T03:40:16.549Z,99.9
2024-03-28T03:41:17.097Z,100.0
2024-03-28T03:42:16.641Z,100.0
2024-03-28T03:43:17.199Z,100.0
2024-03-28T03:44:16.795Z,100.0
2024-03-28T03:45:17.450Z,100.0
2024-03-28T03:46:17.014Z,99.9
2024-03-28T03:47:16.584Z,99.9
2024-03-28T03:48:17.128Z,99.9
2024-03-28T03:49:16.697Z,99.9
2024-03-28T03:50:17.280Z,100.0
2024-03-28T03:51:16.837Z,100.0
2024-03-28T03:52:17.390Z,100.0
2024-03-28T03:53:17.011Z,100.0
2024-03-28T03:54:16.594Z,100.0
2024-03-28T03:55:17.222Z,100.0
2024-03-28T03:56:16.766Z,100.0
2024-03-28T03:57:17.277Z,100.0
2024-03-28T03:58:16.835Z,100.0
2024-03-28T03:59:17.456Z,100.0
2024-03-28T04:00:17.032Z,100.0
2024-03-28T04:01:16.660Z,100.0
2024-03-28T04:02:17.177Z,100.0
2024-03-28T04:03:16.708Z,100.0
2024-03-28T04:04:17.264Z,100.0
2024-03-28T04:05:16.784Z,100.0
2024-03-28T04:06:17.342Z,100.0
2024-03-28T04:07:16.962Z,100.0
2024-03-28T04:08:16.528Z,100.0
2024-03-28T04:09:17.057Z,100.0
2024-03-28T04:10:16.575Z,100.0
2024-03-28T04:11:17.118Z,100.0
2024-03-28T04:12:16.661Z,100.0
2024-03-28T04:13:17.307Z,100.0
2024-03-28T04:14:16.888Z,100.0
2024-03-28T04:15:17.491Z,100.0
2024-03-28T04:16:17.193Z,100.0
2024-03-28T04:17:16.753Z,100.0
2024-03-28T04:18:17.260Z,100.0
2024-03-28T04:19:16.801Z,100.0
2024-03-28T04:20:17.349Z,100.0
2024-03-28T04:21:16.876Z,100.0
2024-03-28T04:22:17.415Z,100.0
2024-03-28T04:23:16.969Z,100.0
2024-03-28T04:24:16.710Z,100.0
2024-03-28T04:25:17.283Z,100.0
2024-03-28T04:26:16.875Z,100.0
2024-03-28T04:27:17.494Z,100.0
2024-03-28T04:28:17.087Z,100.0
2024-03-28T04:29:16.650Z,100.0
2024-03-28T04:30:17.252Z,100.0
2024-03-28T04:31:16.818Z,100.0
2024-03-28T04:32:17.417Z,100.0
2024-03-28T04:33:16.986Z,100.0
2024-03-28T04:34:16.628Z,100.0
2024-03-28T04:35:17.166Z,100.0
2024-03-28T04:36:16.740Z,100.0
2024-03-28T04:37:17.381Z,100.0
2024-03-28T04:38:16.952Z,100.0
2024-03-28T04:39:17.541Z,100.0
2024-03-28T04:40:17.080Z,100.0
2024-03-28T04:41:16.656Z,100.0
2024-03-28T04:42:17.198Z,100.0
2024-03-28T04:43:16.727Z,100.0
2024-03-28T04:44:17.261Z,100.0
2024-03-28T04:45:16.854Z,100.0
2024-03-28T04:46:17.377Z,100.0
2024-03-28T04:47:16.900Z,100.0
2024-03-28T04:48:17.476Z,100.0
2024-03-28T04:49:17.035Z,100.0
2024-03-28T04:50:16.568Z,100.0
2024-03-28T04:51:17.105Z,100.0
2024-03-28T04:52:16.670Z,100.0
2024-03-28T04:53:17.221Z,100.0
2024-03-28T04:54:16.773Z,100.0
2024-03-28T04:55:17.372Z,100.0
2024-03-28T04:56:16.915Z,100.0
2024-03-28T04:57:17.480Z,100.0
2024-03-28T04:58:17.027Z,100.0
2024-03-28T04:59:16.587Z,100.0
2024-03-28T05:00:17.131Z,100.0
2024-03-28T05:01:16.696Z,100.0
2024-03-28T05:02:17.218Z,100.0
2024-03-28T05:03:16.805Z,100.0
2024-03-28T05:04:17.360Z,100.0
2024-03-28T05:05:16.910Z,100.0
2024-03-28T05:06:17.446Z,100.0
2024-03-28T05:07:16.962Z,100.0
2024-03-28T05:08:17.471Z,100.0
2024-03-28T05:09:17.057Z,100.0
2024-03-28T05:10:16.589Z,100.0
2024-03-28T05:11:17.154Z,100.0
2024-03-28T05:12:16.697Z,100.0
2024-03-28T05:13:17.240Z,100.0
2024-03-28T05:14:16.839Z,100.0
2024-03-28T05:15:17.405Z,100.0
2024-03-28T05:16:16.922Z,100.0
2024-03-28T05:17:17.476Z,100.0
2024-03-28T05:18:17.033Z,100.0
2024-03-28T05:19:16.571Z,100.0
2024-03-28T05:20:17.088Z,100.0
2024-03-28T05:21:16.625Z,100.0
2024-03-28T05:22:17.164Z,100.0
2024-03-28T05:23:16.726Z,100.0
2024-03-28T05:24:17.236Z,100.0
2024-03-28T05:25:16.811Z,100.0
2024-03-28T05:26:17.379Z,100.0
2024-03-28T05:27:16.931Z,100.0
2024-03-28T05:28:17.480Z,100.0
2024-03-28T05:29:17.014Z,100.0
2024-03-28T05:30:16.551Z,100.0
2024-03-28T05:31:17.075Z,100.0
2024-03-28T05:32:16.627Z,100.0
2024-03-28T05:33:17.195Z,100.0
2024-03-28T05:34:16.783Z,100.0
2024-03-28T05:35:17.343Z,100.0
2024-03-28T05:36:16.860Z,100.0
2024-03-28T05:37:17.377Z,100.0
2024-03-28T05:38:16.936Z,100.0
2024-03-28T05:39:17.503Z,99.9
2024-03-28T05:40:17.079Z,99.7
2024-03-28T05:41:16.616Z,99.6
2024-03-28T05:42:17.172Z,99.7
2024-03-28T05:43:16.711Z,99.5
2024-03-28T05:44:17.256Z,99.5
2024-03-28T05:45:16.840Z,99.5
2024-03-28T05:46:17.439Z,99.4
2024-03-28T05:47:16.983Z,99.4
2024-03-28T05:48:16.493Z,99.4
2024-03-28T05:49:17.013Z,99.3
2024-03-28T05:50:16.580Z,99.3
2024-03-28T05:51:20.553Z,99.1
2024-03-28T05:52:17.096Z,99.1
2024-03-28T05:53:16.684Z,98.9
2024-03-28T05:54:17.194Z,98.7
2024-03-28T05:55:16.768Z,98.6
2024-03-28T05:56:17.322Z,98.5
2024-03-28T05:57:16.879Z,98.6
2024-03-28T05:58:17.412Z,98.7
2024-03-28T05:59:16.984Z,98.5
2024-03-28T06:00:16.589Z,98.4
2024-03-28T06:01:17.142Z,98.3
2024-03-28T06:02:16.683Z,98.1
2024-03-28T06:03:17.245Z,98.1
2024-03-28T06:04:16.849Z,97.7
2024-03-28T06:05:17.409Z,97.6
2024-03-28T06:06:16.945Z,97.3
2024-03-28T06:07:17.495Z,97.2
2024-03-28T06:08:17.068Z,97.2
2024-03-28T06:09:16.614Z,96.9
2024-03-28T06:10:17.141Z,97.1
2024-03-28T06:11:16.687Z,97.1
2024-03-28T06:12:17.260Z,96.4
2024-03-28T06:13:17.009Z,96.1
2024-03-28T06:14:16.541Z,95.6
2024-03-28T06:15:17.071Z,95.5
2024-03-28T06:16:17.390Z,95.7
2024-03-28T06:17:16.959Z,95.5
2024-03-28T06:18:17.559Z,95.4
2024-03-28T06:19:17.089Z,95.4
2024-03-28T06:20:16.581Z,94.3
2024-03-28T06:21:17.108Z,94.0
2024-03-28T06:22:16.678Z,93.8
2024-03-28T06:23:17.226Z,93.3
2024-03-28T06:24:16.765Z,93.6
2024-03-28T06:25:17.394Z,93.8
2024-03-28T06:26:16.915Z,93.8
2024-03-28T06:27:17.448Z,93.7
2024-03-28T06:28:17.011Z,93.5
2024-03-28T06:29:16.584Z,93.2
2024-03-28T06:30:17.139Z,92.9
2024-03-28T06:31:16.866Z,92.8
2024-03-28T06:32:17.453Z,92.4
2024-03-28T06:33:17.011Z,91.6
2024-03-28T06:34:16.557Z,91.8
2024-03-28T06:35:17.125Z,92.3
2024-03-28T06:36:21.946Z,93.0
2024-03-28T06:37:16.850Z,92.1
2024-03-28T06:38:17.353Z,92.0
2024-03-28T06:39:16.856Z,91.3
2024-03-28T06:40:17.471Z,90.6
2024-03-28T06:41:16.986Z,90.2
2024-03-28T06:42:16.513Z,89.7
2024-03-28T06:43:17.101Z,89.6
2024-03-28T06:44:16.642Z,89.2
2024-03-28T06:45:17.162Z,89.4
2024-03-28T06:46:16.749Z,88.9
2024-03-28T06:47:17.304Z,89.6
2024-03-28T06:48:16.838Z,89.5
2024-03-28T06:49:17.396Z,88.9
2024-03-28T06:50:16.950Z,89.4
2024-03-28T06:51:17.490Z,89.1
2024-03-28T06:52:17.044Z,89.3
2024-03-28T06:53:16.612Z,88.8
2024-03-28T06:54:17.160Z,88.4
2024-03-28T06:55:16.722Z,89.0
2024-03-28T06:56:17.239Z,89.2
2024-03-28T06:57:16.789Z,89.6
2024-03-28T06:58:17.357Z,89.9
2024-03-28T06:59:16.921Z,88.8
2024-03-28T07:00:17.538Z,88.0
2024-03-28T07:01:17.099Z,88.7
2024-03-28T07:02:16.726Z,88.8
2024-03-28T07:03:17.378Z,88.2
2024-03-28T07:04:16.943Z,87.9
2024-03-28T07:05:17.538Z,87.0
2024-03-28T07:06:19.829Z,88.0
2024-03-28T07:07:17.445Z,87.8
2024-03-28T07:08:16.980Z,87.0
2024-03-28T07:09:16.571Z,86.9
2024-03-28T07:10:17.120Z,86.3
2024-03-28T07:11:16.656Z,86.4
2024-03-28T07:12:17.208Z,87.1
2024-03-28T07:13:16.739Z,87.6
2024-03-28T07:14:17.282Z,87.6
2024-03-28T07:15:16.870Z,85.7
2024-03-28T07:16:17.418Z,86.8
2024-03-28T07:17:16.951Z,86.3
2024-03-28T07:18:17.546Z,86.8
2024-03-28T07:19:17.142Z,85.6
2024-03-28T07:20:16.698Z,85.5
2024-03-28T07:21:17.263Z,85.6
2024-03-28T07:22:16.840Z,85.0
2024-03-28T07:23:17.393Z,86.3
2024-03-28T07:24:16.935Z,86.2
2024-03-28T07:25:17.477Z,85.4
2024-03-28T07:26:17.030Z,84.4
2024-03-28T07:27:16.551Z,84.7
2024-03-28T07:28:17.078Z,85.3
2024-03-28T07:29:16.648Z,84.4
2024-03-28T07:30:17.195Z,82.7
2024-03-28T07:31:16.756Z,82.5
2024-03-28T07:32:17.318Z,82.9
2024-03-28T07:33:16.854Z,80.8
2024-03-28T07:34:17.451Z,79.1
2024-03-28T07:35:17.018Z,79.6
2024-03-28T07:36:16.636Z,79.1
2024-03-28T07:37:17.178Z,79.1
2024-03-28T07:38:16.712Z,79.2
2024-03-28T07:39:17.255Z,78.0
2024-03-28T07:40:16.808Z,77.9
2024-03-28T07:41:17.330Z,78.0
2024-03-28T07:42:22.274Z,78.3
2024-03-28T07:43:17.094Z,79.5
2024-03-28T07:44:16.698Z,77.3
2024-03-28T07:45:17.257Z,78.4
2024-03-28T07:46:16.828Z,77.4
2024-03-28T07:47:17.382Z,77.0
2024-03-28T07:48:16.936Z,75.8
2024-03-28T07:49:17.449Z,75.2
2024-03-28T07:50:17.002Z,75.4
2024-03-28T07:51:16.583Z,74.4
2024-03-28T07:52:17.138Z,74.9
2024-03-28T07:53:16.678Z,75.2
2024-03-28T07:54:17.297Z,74.9
2024-03-28T07:55:17.859Z,75.3
2024-03-28T07:56:17.462Z,77.4
2024-03-28T07:57:17.072Z,76.4
2024-03-28T07:58:16.593Z,77.3
2024-03-28T07:59:17.145Z,75.3
2024-03-28T08:00:16.707Z,74.7
2024-03-28T08:01:17.243Z,75.0
2024-03-28T08:02:16.809Z,76.2
2024-03-28T08:03:17.382Z,76.0
2024-03-28T08:04:16.899Z,73.2
2024-03-28T08:05:17.416Z,76.1
2024-03-28T08:06:16.957Z,74.5
2024-03-28T08:07:18.503Z,74.6
2024-03-28T08:08:17.061Z,74.2
2024-03-28T08:09:16.613Z,74.7
2024-03-28T08:10:17.131Z,73.8
2024-03-28T08:11:16.684Z,70.7
2024-03-28T08:12:17.264Z,69.8
2024-03-28T08:13:16.810Z,69.8
2024-03-28T08:14:17.420Z,69.7
2024-03-28T08:15:16.972Z,69.8
2024-03-28T08:16:16.550Z,68.4
2024-03-28T08:17:17.089Z,69.6
2024-03-28T08:18:16.602Z,70.3
2024-03-28T08:19:17.115Z,71.1
2024-03-28T08:20:16.659Z,72.3
2024-03-28T08:21:17.612Z,69.8
2024-03-28T08:22:17.177Z,68.1
2024-03-28T08:23:16.711Z,67.5
2024-03-28T08:24:17.307Z,67.9
2024-03-28T08:25:16.849Z,69.2
2024-03-28T08:26:17.390Z,68.5
2024-03-28T08:27:16.984Z,70.1
2024-03-28T08:28:16.514Z,71.0
2024-03-28T08:29:17.060Z,71.2
2024-03-28T08:30:16.612Z,71.4
2024-03-28T08:31:17.124Z,70.4
2024-03-28T08:32:16.665Z,69.4
2024-03-28T08:33:17.313Z,69.4
2024-03-28T08:34:16.893Z,67.6
2024-03-28T08:35:17.453Z,67.0
2024-03-28T08:36:17.013Z,68.6
2024-03-28T08:37:21.235Z,69.7
2024-03-28T08:38:16.877Z,69.1
2024-03-28T08:39:17.653Z,68.8
2024-03-28T08:40:17.230Z,69.4
2024-03-28T08:41:16.784Z,72.3
2024-03-28T08:42:18.873Z,72.7
2024-03-28T08:43:17.393Z,72.7
2024-03-28T08:44:16.943Z,72.5
2024-03-28T08:45:17.505Z,73.1
2024-03-28T08:46:17.030Z,73.1
2024-03-28T08:47:16.619Z,72.1
2024-03-28T08:48:17.188Z,72.5
2024-03-28T08:49:16.722Z,72.5
2024-03-28T08:50:17.287Z,72.8
2024-03-28T08:51:16.856Z,72.9
2024-03-28T08:52:17.472Z,73.2
2024-03-28T08:53:17.013Z,73.1
2024-03-28T08:54:16.612Z,73.0
2024-03-28T08:55:17.199Z,73.0
2024-03-28T08:56:16.751Z,74.9
2024-03-28T08:57:17.325Z,75.9
2024-03-28T08:58:16.907Z,76.1
2024-03-28T08:59:17.489Z,75.7
2024-03-28T09:00:17.049Z,75.6
2024-03-28T09:01:16.568Z,75.6
2024-03-28T09:02:17.137Z,75.6
2024-03-28T09:03:16.670Z,76.3
2024-03-28T09:04:17.254Z,75.9
2024-03-28T09:05:16.869Z,76.2
2024-03-28T09:06:17.468Z,77.1
2024-03-28T09:07:17.051Z,77.2
2024-03-28T09:08:16.629Z,77.4
2024-03-28T09:09:17.173Z,78.0
2024-03-28T09:10:16.742Z,77.9
2024-03-28T09:11:17.340Z,77.9
2024-03-28T09:12:21.246Z,78.5
2024-03-28T09:13:16.960Z,78.2
2024-03-28T09:14:17.519Z,78.4
2024-03-28T09:15:17.066Z,78.8
2024-03-28T09:16:16.578Z,79.2
2024-03-28T09:17:17.161Z,78.9
2024-03-28T09:18:16.728Z,79.5
2024-03-28T09:19:17.268Z,79.8
2024-03-28T09:20:16.815Z,79.9
2024-03-28T09:21:17.344Z,79.9
2024-03-28T09:22:16.899Z,80.3
2024-03-28T09:23:17.447Z,80.3
2024-03-28T09:24:17.026Z,80.2
2024-03-28T09:25:16.667Z,80.6
2024-03-28T09:26:17.275Z,80.8
2024-03-28T09:27:16.861Z,80.8
2024-03-28T09:28:17.371Z,80.8
2024-03-28T09:29:16.938Z,80.8
2024-03-28T09:30:17.481Z,80.7
2024-03-28T09:31:17.036Z,80.7
2024-03-28T09:32:16.832Z,80.3
2024-03-28T09:33:17.368Z,80.3
2024-03-28T09:34:16.924Z,80.0
2024-03-28T09:35:17.430Z,79.6
2024-03-28T09:36:21.842Z,78.9
2024-03-28T09:37:17.528Z,78.7
2024-03-28T09:38:17.116Z,78.8
2024-03-28T09:39:16.656Z,78.4
2024-03-28T09:40:17.215Z,79.0
2024-03-28T09:41:16.786Z,79.3
2024-03-28T09:42:17.327Z,80.2
2024-03-28T09:43:16.910Z,80.2
2024-03-28T09:44:17.461Z,80.3
2024-03-28T09:45:16.994Z,80.3
2024-03-28T09:46:16.547Z,80.3
2024-03-28T09:47:17.229Z,80.9
2024-03-28T09:48:16.853Z,81.4
2024-03-28T09:49:17.404Z,82.9
2024-03-28T09:50:16.999Z,83.8
2024-03-28T09:51:16.537Z,84.6
2024-03-28T09:52:17.075Z,85.0
2024-03-28T09:53:16.608Z,85.9
2024-03-28T09:54:17.154Z,86.1
2024-03-28T09:55:16.705Z,86.1
2024-03-28T09:56:17.257Z,87.4
2024-03-28T09:57:16.829Z,88.3
2024-03-28T09:58:17.369Z,87.7
2024-03-28T09:59:16.909Z,88.4
2024-03-28T10:00:16.569Z,87.7
2024-03-28T10:01:17.123Z,88.9
2024-03-28T10:02:16.663Z,89.5
2024-03-28T10:03:17.205Z,91.0
2024-03-28T10:04:16.758Z,91.1
2024-03-28T10:05:17.325Z,91.7
2024-03-28T10:06:16.893Z,91.4
2024-03-28T10:07:17.414Z,91.5
2024-03-28T10:08:16.929Z,91.5
2024-03-28T10:09:17.443Z,91.2
2024-03-28T10:10:17.012Z,91.5
2024-03-28T10:11:16.562Z,91.1
2024-03-28T10:12:17.081Z,91.1
2024-03-28T10:13:16.622Z,91.0
2024-03-28T10:14:17.170Z,91.3
2024-03-28T10:15:16.772Z,91.3
2024-03-28T10:16:17.319Z,91.3
2024-03-28T10:17:16.856Z,91.8
2024-03-28T10:18:17.400Z,91.3
2024-03-28T10:19:16.943Z,91.4
2024-03-28T10:20:17.506Z,91.7
2024-03-28T10:21:17.070Z,92.0
2024-03-28T10:22:17.672Z,92.1
2024-03-28T10:23:17.219Z,91.9
2024-03-28T10:24:16.796Z,92.1
2024-03-28T10:25:17.361Z,92.4
2024-03-28T10:26:16.930Z,92.7
2024-03-28T10:27:17.452Z,93.1
2024-03-28T10:28:17.007Z,92.3
2024-03-28T10:29:16.538Z,92.7
2024-03-28T10:30:17.079Z,92.7
2024-03-28T10:31:16.664Z,93.1
2024-03-28T10:32:17.295Z,93.3
2024-03-28T10:33:19.658Z,93.7
2024-03-28T10:34:17.315Z,93.1
2024-03-28T10:35:16.885Z,92.7
2024-03-28T10:36:17.430Z,92.9
2024-03-28T10:37:16.994Z,92.5
2024-03-28T10:38:20.305Z,92.4
2024-03-28T10:39:16.952Z,92.5
2024-03-28T10:40:17.537Z,92.4
2024-03-28T10:41:17.233Z,91.7
2024-03-28T10:42:16.791Z,91.8
2024-03-28T10:43:17.704Z,91.1
2024-03-28T10:44:16.971Z,91.9
2024-03-28T10:45:16.825Z,91.6
2024-03-28T10:46:17.374Z,91.6
2024-03-28T10:47:16.984Z,91.9
2024-03-28T10:48:16.597Z,90.7
2024-03-28T10:49:17.167Z,91.2
2024-03-28T10:50:16.743Z,91.3
2024-03-28T10:51:17.313Z,91.6
2024-03-28T10:52:16.892Z,91.9
2024-03-28T10:53:17.458Z,92.7
2024-03-28T10:54:23.555Z,92.0
2024-03-28T10:55:17.257Z,92.1
2024-03-28T10:56:16.788Z,90.8
2024-03-28T10:57:17.320Z,91.1
2024-03-28T10:58:16.892Z,90.1
2024-03-28T10:59:17.442Z,90.1
2024-03-28T11:00:17.088Z,90.1
2024-03-28T11:01:16.736Z,90.0
2024-03-28T11:02:17.279Z,89.6
2024-03-28T11:03:16.845Z,89.0
2024-03-28T11:04:17.389Z,89.7
2024-03-28T11:05:16.975Z,89.0
2024-03-28T11:06:16.489Z,88.9
2024-03-28T11:07:17.112Z,89.1
2024-03-28T11:08:16.664Z,89.1
2024-03-28T11:09:17.194Z,88.1
2024-03-28T11:10:16.756Z,88.5
2024-03-28T11:11:17.307Z,89.0
2024-03-28T11:12:16.883Z,89.5
2024-03-28T11:13:17.471Z,90.1
2024-03-28T11:14:17.035Z,89.2
2024-03-28T11:15:16.554Z,88.6
2024-03-28T11:16:17.065Z,89.1
2024-03-28T11:17:16.605Z,89.2
2024-03-28T11:18:17.202Z,89.6
2024-03-28T11:19:16.742Z,89.4
2024-03-28T11:20:17.291Z,89.2
2024-03-28T11:21:16.841Z,89.0
2024-03-28T11:22:17.395Z,89.3
2024-03-28T11:23:16.973Z,88.8
2024-03-28T11:24:16.524Z,88.5
2024-03-28T11:25:17.496Z,88.9
2024-03-28T11:26:17.399Z,88.9
2024-03-28T11:27:17.812Z,88.5
2024-03-28T11:28:17.288Z,89.0
2024-03-28T11:29:16.817Z,89.1
2024-03-28T11:30:17.394Z,88.3
2024-03-28T11:31:16.907Z,88.4
2024-03-28T11:32:17.502Z,88.5
2024-03-28T11:33:17.008Z,88.0
2024-03-28T11:34:16.564Z,88.1
2024-03-28T11:35:17.122Z,88.3
2024-03-28T11:36:16.690Z,88.4
2024-03-28T11:37:17.244Z,88.2
2024-03-28T11:38:16.831Z,89.2
2024-03-28T11:39:17.369Z,88.7
2024-03-28T11:40:16.904Z,88.4
2024-03-28T11:41:17.422Z,88.1
2024-03-28T11:42:32.297Z,87.6
2024-03-28T11:43:16.789Z,87.7
2024-03-28T11:44:17.346Z,87.6
2024-03-28T11:45:16.864Z,87.3
2024-03-28T11:46:17.431Z,87.4
2024-03-28T11:47:16.983Z,86.9
2024-03-28T11:48:16.586Z,87.0
2024-03-28T11:49:17.101Z,87.1
2024-03-28T11:50:16.650Z,86.9
2024-03-28T11:51:17.193Z,87.3
2024-03-28T11:52:16.723Z,86.9
2024-03-28T11:53:17.228Z,85.9
2024-03-28T11:54:16.741Z,86.3
2024-03-28T11:55:17.255Z,84.9
2024-03-28T11:56:16.778Z,84.2
2024-03-28T11:57:17.311Z,84.0
2024-03-28T11:58:16.841Z,83.6
2024-03-28T11:59:17.345Z,83.7
2024-03-28T12:00:16.888Z,83.0
2024-03-28T12:01:17.588Z,81.9
2024-03-28T12:02:17.139Z,81.6
2024-03-28T12:03:16.688Z,80.8
2024-03-28T12:04:17.252Z,81.2
2024-03-28T12:05:16.763Z,81.2
2024-03-28T12:06:17.329Z,80.9
2024-03-28T12:07:16.863Z,80.7
2024-03-28T12:08:20.088Z,79.8
2024-03-28T12:09:16.731Z,80.0
2024-03-28T12:10:17.290Z,80.1
2024-03-28T12:11:16.805Z,80.7
2024-03-28T12:12:17.340Z,80.7
2024-03-28T12:13:16.923Z,80.4
2024-03-28T12:14:17.479Z,81.2
2024-03-28T12:15:16.990Z,81.1
2024-03-28T12:16:16.519Z,81.1
2024-03-28T12:17:17.089Z,80.5
2024-03-28T12:18:16.634Z,80.7
2024-03-28T12:19:17.166Z,80.7
2024-03-28T12:20:16.770Z,80.2
2024-03-28T12:21:17.304Z,80.6
2024-03-28T12:22:16.912Z,80.2
2024-03-28T12:23:16.741Z,79.7
2024-03-28T12:24:17.347Z,79.2
2024-03-28T12:25:16.890Z,79.3
2024-03-28T12:26:17.441Z,79.1
2024-03-28T12:27:16.977Z,79.2
2024-03-28T12:28:16.633Z,79.6
2024-03-28T12:29:17.190Z,78.6
2024-03-28T12:30:16.721Z,77.9
2024-03-28T12:31:17.259Z,78.0
2024-03-28T12:32:19.920Z,78.1
2024-03-28T12:33:16.691Z,78.3
2024-03-28T12:34:17.198Z,78.8
2024-03-28T12:35:16.738Z,78.6
2024-03-28T12:36:29.088Z,78.2
2024-03-28T12:37:17.082Z,77.9
2024-03-28T12:38:16.621Z,78.1
2024-03-28T12:39:17.183Z,78.2
2024-03-28T12:40:16.728Z,77.8
2024-03-28T12:41:17.244Z,77.4
2024-03-28T12:42:16.798Z,77.4
2024-03-28T12:43:17.322Z,76.7
2024-03-28T12:44:16.879Z,76.7
2024-03-28T12:45:24.654Z,77.0
2024-03-28T12:46:17.276Z,76.9
2024-03-28T12:47:16.830Z,77.3
2024-03-28T12:48:17.364Z,77.3
2024-03-28T12:49:16.914Z,78.0
2024-03-28T12:50:17.419Z,78.3
2024-03-28T12:51:16.927Z,77.6
2024-03-28T12:52:17.453Z,77.5
2024-03-28T12:53:17.044Z,77.2
2024-03-28T12:54:16.655Z,77.1
2024-03-28T12:55:20.763Z,77.9
2024-03-28T12:56:17.328Z,76.3
2024-03-28T12:57:16.882Z,76.2
2024-03-28T12:58:17.445Z,75.9
2024-03-28T12:59:17.023Z,75.9
2024-03-28T13:00:16.607Z,76.0
2024-03-28T13:01:17.121Z,76.1
2024-03-28T13:02:16.675Z,76.1
2024-03-28T13:03:17.224Z,76.3
2024-03-28T13:04:16.770Z,76.0
2024-03-28T13:05:17.292Z,76.1
2024-03-28T13:06:16.837Z,75.9
2024-03-28T13:07:17.423Z,76.3
2024-03-28T13:08:16.957Z,76.2
2024-03-28T13:09:17.539Z,76.0
2024-03-28T13:10:17.089Z,75.4
2024-03-28T13:11:16.607Z,75.5
2024-03-28T13:12:17.178Z,74.8
2024-03-28T13:13:16.720Z,74.3
2024-03-28T13:14:17.257Z,74.4
2024-03-28T13:15:16.819Z,74.2